»·PEaware :: N821CB KWHP-KSBD

N821CB :: KWHP-KSBD

FLIGHT INFORMATION

Flight Status: Arrived
Operator: Privately registered:
United States
More flights under this callsign
Pilot: Christopher B. (81)
Aircraft: CESSNA 172 SKYHAWK
(C172)
More flights by this aircraft type
Origin: KWHP Whiteman
United States
Destination: KSBD San Bernardino Intl
United States
More flights between these airports :: More routes between these airports
Route: +
File this flight plan on PilotEdge
Remarks:
Altitude:
(Current/Filed)
0ft
Speed:
(Current/Filed)
0kts
Departed: 17-Mar-12 05:16 PM
Arrived: 17-Mar-12 05:55 PM
Distance/Time
Traveled:
60nm/0:38
Distance/Time
To Go:
Arrived

Flight Plot

Page will automatically refresh every two minutes.

Flight plan parsing failed; only flown route is shown


Map Options




Map Legend


Flown Route
Filed Route
Departure Airport
Arrival Airport
Navaid (VOR, NDB)
Fix

Horizontal Profiles

Position Reports

Time Latitude Longitude Heading Altitude Ground
Speed
17-Mar-12 17:08 34.258621 -118.411816 158 1007ft 6kts
17-Mar-12 17:09 34.256149 -118.409293 139 1007ft 13kts
17-Mar-12 17:10 34.255387 -118.408524 315 1007ft 0kts
17-Mar-12 17:11 34.255387 -118.408524 315 1007ft 0kts
17-Mar-12 17:12 34.255387 -118.408524 315 1007ft 0kts
17-Mar-12 17:14 34.255316 -118.409034 240 1007ft 1kts
17-Mar-12 17:15 34.264572 -118.418425 317 1390ft 75kts
17-Mar-12 17:16 34.280782 -118.434263 281 2184ft 83kts
17-Mar-12 17:17 34.260071 -118.432219 155 2093ft 102kts
17-Mar-12 17:18 34.241920 -118.415871 137 2853ft 81kts
17-Mar-12 17:19 34.229247 -118.399055 136 3500ft 90kts
17-Mar-12 17:20 34.210653 -118.374023 137 3502ft 111kts
17-Mar-12 17:21 34.184962 -118.342333 137 3444ft 114kts
17-Mar-12 17:22 34.166900 -118.318439 113 3441ft 117kts
17-Mar-12 17:23 34.154539 -118.281864 111 3446ft 117kts
17-Mar-12 17:24 34.143745 -118.244333 106 3447ft 119kts
17-Mar-12 17:25 34.137095 -118.206458 101 3441ft 112kts
17-Mar-12 17:26 34.131704 -118.169135 93 3461ft 112kts
17-Mar-12 17:27 34.130150 -118.131191 89 3462ft 114kts
17-Mar-12 17:28 34.130781 -118.092575 90 3461ft 115kts
17-Mar-12 17:29 34.129940 -118.047520 95 3487ft 115kts
17-Mar-12 17:30 34.127958 -118.015355 95 3489ft 115kts
17-Mar-12 17:31 34.125601 -117.976570 96 3501ft 116kts
17-Mar-12 17:32 34.120006 -117.937926 109 3484ft 115kts
17-Mar-12 17:33 34.110932 -117.901455 109 3509ft 111kts
17-Mar-12 17:34 34.105525 -117.863992 100 3508ft 114kts
17-Mar-12 17:35 34.103754 -117.825049 92 3520ft 118kts
17-Mar-12 17:36 34.104215 -117.784771 92 3519ft 120kts
17-Mar-12 17:37 34.104728 -117.744472 93 3514ft 119kts
17-Mar-12 17:38 34.105220 -117.703987 93 3518ft 119kts
17-Mar-12 17:39 34.108054 -117.675055 73 3543ft 116kts
17-Mar-12 17:40 34.117468 -117.639908 64 3492ft 105kts
17-Mar-12 17:41 34.136493 -117.608933 67 3488ft 127kts
17-Mar-12 17:42 34.147193 -117.566666 73 3495ft 130kts
17-Mar-12 17:43 34.153404 -117.524287 93 3501ft 128kts
17-Mar-12 17:44 34.151598 -117.479700 92 3500ft 137kts
17-Mar-12 17:45 34.149827 -117.437524 96 3495ft 121kts
17-Mar-12 17:46 34.148345 -117.397769 93 2826ft 121kts
17-Mar-12 17:47 34.147248 -117.360098 94 2399ft 119kts
17-Mar-12 17:48 34.144320 -117.328245 133 2034ft 110kts
17-Mar-12 17:49 34.118868 -117.318814 169 2016ft 101kts
17-Mar-12 17:50 34.096357 -117.312138 175 2016ft 109kts
17-Mar-12 17:51 34.075936 -117.292786 62 1971ft 97kts
17-Mar-12 17:52 34.086617 -117.263842 72 1603ft 90kts
17-Mar-12 17:53 34.093014 -117.242655 69 1172ft 62kts
17-Mar-12 17:54 34.098351 -117.226654 29 1161ft 39kts
17-Mar-12 17:55 34.099574 -117.226089 255 1161ft 0kts
17-Mar-12 17:56 34.099590 -117.226470 273 1161ft 0kts
17-Mar-12 17:57 34.100617 -117.227745 201 1161ft 2kts
17-Mar-12 17:58 34.100546 -117.227777 196 1161ft 0kts
17-Mar-12 17:59 34.100546 -117.227777 196 1161ft 0kts
17-Mar-12 18:00 34.100546 -117.227777 196 1161ft 0kts

Navigation Log

Ident Type
Flight plan parsing failed, navigation log unavailable